Time;durP1;ratioP1;P1;durP2;ratioP2;P2;SDS_P1;SDS_P2;PMS_P1;PMS_P2;Temp;Humidity;BMP_temperature;BMP_pressure;BME280_temperature;BME280_humidity;BME280_pressure;Samples;Min_cycle;Max_cycle;Signal;HPM_P1;HPM_P2
2022/05/07 00:02:16;;;;;;;14.57;8.75;;;;;;;;;;5015196;28;20085;-78
2022/05/07 00:04:43;;;;;;;13.02;8.82;;;;;;;;;;5021500;28;20161;-78
2022/05/07 00:07:09;;;;;;;12.13;8.63;;;;;;;;;;5022330;28;20058;-78
2022/05/07 00:09:36;;;;;;;14.90;8.93;;;;;;;;;;5013261;28;20132;-79
2022/05/07 00:12:03;;;;;;;14.25;9.68;;;;;;;;;;5008740;28;20064;-80
2022/05/07 00:14:29;;;;;;;15.45;9.55;;;;;;;;;;5008905;28;20058;-79
2022/05/07 00:19:41;;;;;;;12.35;8.98;;;;;;;;;;5008799;28;20054;-79
2022/05/07 00:22:07;;;;;;;12.68;9.18;;;;;;;;;;5005462;28;20585;-79
2022/05/07 00:24:34;;;;;;;14.82;10.25;;;;;;;;;;5002614;28;20650;-79
2022/05/07 00:27:00;;;;;;;14.73;9.30;;;;;;;;;;5007947;28;20062;-79
2022/05/07 00:29:26;;;;;;;13.63;9.35;;;;;;;;;;5009945;28;20062;-79
2022/05/07 00:31:53;;;;;;;17.40;10.27;;;;;;;;;;5009598;28;20085;-79
2022/05/07 00:34:21;;;;;;;12.07;9.18;;;;;;;;;;4989850;28;20059;-79
2022/05/07 00:36:47;;;;;;;14.02;9.73;;;;;;;;;;4990514;28;20168;-80
2022/05/07 00:39:13;;;;;;;13.02;9.63;;;;;;;;;;5010388;28;20058;-78
2022/05/07 00:41:40;;;;;;;14.02;9.80;;;;;;;;;;5001915;28;20046;-79
2022/05/07 00:44:06;;;;;;;15.52;10.63;;;;;;;;;;5016861;28;20050;-80
2022/05/07 00:46:33;;;;;;;15.00;10.73;;;;;;;;;;4986271;28;20047;-79
2022/05/07 00:48:59;;;;;;;17.02;10.57;;;;;;;;;;4996349;28;20050;-79
2022/05/07 00:51:35;;;;;;;16.75;10.75;;;;;;;;;;5010924;28;20058;-79
2022/05/07 00:54:05;;;;;;;13.73;9.90;;;;;;;;;;5008568;28;20050;-79
2022/05/07 00:56:32;;;;;;;13.73;10.38;;;;;;;;;;5006038;28;20098;-78
2022/05/07 00:58:59;;;;;;;15.38;10.18;;;;;;;;;;5004889;28;20058;-80
2022/05/07 01:01:25;;;;;;;15.05;10.50;;;;;;;;;;5008543;28;21081;-79
2022/05/07 01:03:52;;;;;;;14.15;10.07;;;;;;;;;;5008456;28;20050;-79
2022/05/07 01:06:20;;;;;;;15.88;10.32;;;;;;;;;;5006212;28;20054;-79
2022/05/07 01:08:47;;;;;;;17.30;11.32;;;;;;;;;;5010909;28;20047;-79
2022/05/07 01:11:18;;;;;;;17.42;11.77;;;;;;;;;;5012695;28;20070;-79
2022/05/07 01:13:45;;;;;;;15.60;11.60;;;;;;;;;;5013436;28;20062;-80
2022/05/07 01:16:14;;;;;;;14.73;11.50;;;;;;;;;;5009387;28;20153;-79
2022/05/07 01:18:41;;;;;;;18.25;11.82;;;;;;;;;;4990813;28;20065;-79
2022/05/07 01:21:17;;;;;;;21.50;12.77;;;;;;;;;;5005243;28;20085;-78
2022/05/07 01:23:44;;;;;;;22.40;13.05;;;;;;;;;;5004606;28;20089;-78
2022/05/07 01:26:11;;;;;;;20.05;12.68;;;;;;;;;;5003646;28;20761;-78
2022/05/07 01:28:38;;;;;;;22.20;14.65;;;;;;;;;;5003305;28;20054;-78
2022/05/07 01:31:05;;;;;;;21.75;12.98;;;;;;;;;;5002054;28;20568;-77
2022/05/07 01:33:35;;;;;;;23.15;14.05;;;;;;;;;;4994742;28;20058;-78
2022/05/07 01:36:02;;;;;;;22.58;13.85;;;;;;;;;;5003187;28;20568;-77
2022/05/07 01:38:29;;;;;;;24.60;14.68;;;;;;;;;;5004068;28;20056;-77
2022/05/07 01:40:55;;;;;;;26.33;14.80;;;;;;;;;;5003351;28;20046;-77
2022/05/07 01:43:22;;;;;;;26.33;14.15;;;;;;;;;;5003369;28;20058;-77
2022/05/07 01:45:48;;;;;;;31.02;16.58;;;;;;;;;;5004430;28;20054;-77
2022/05/07 01:48:15;;;;;;;30.83;16.85;;;;;;;;;;5003733;28;20568;-78
2022/05/07 01:50:42;;;;;;;31.98;18.23;;;;;;;;;;5004172;28;20054;-77
2022/05/07 01:53:12;;;;;;;29.85;17.65;;;;;;;;;;5004068;28;20098;-78
2022/05/07 01:55:38;;;;;;;32.67;18.45;;;;;;;;;;4986412;28;20110;-78
2022/05/07 01:58:04;;;;;;;35.42;17.65;;;;;;;;;;5001206;28;20054;-78
2022/05/07 02:00:31;;;;;;;33.53;18.40;;;;;;;;;;5005055;28;21646;-79
2022/05/07 02:02:58;;;;;;;31.02;17.35;;;;;;;;;;5005947;28;21007;-78
2022/05/07 02:05:25;;;;;;;31.92;17.00;;;;;;;;;;5006897;28;20062;-78
2022/05/07 02:07:52;;;;;;;33.75;18.27;;;;;;;;;;5006267;28;20077;-77
2022/05/07 02:10:19;;;;;;;31.58;17.52;;;;;;;;;;5006990;28;20137;-77
2022/05/07 02:12:45;;;;;;;33.67;17.17;;;;;;;;;;5005944;28;20683;-78
2022/05/07 02:15:12;;;;;;;35.88;17.52;;;;;;;;;;5006086;28;20061;-78
2022/05/07 02:17:38;;;;;;;30.33;17.20;;;;;;;;;;5007546;28;20136;-78
2022/05/07 02:20:05;;;;;;;29.20;17.10;;;;;;;;;;5007533;28;20054;-77
2022/05/07 02:22:32;;;;;;;32.25;17.25;;;;;;;;;;5005007;28;20125;-78
2022/05/07 02:24:58;;;;;;;33.65;17.65;;;;;;;;;;5004659;28;20957;-78
2022/05/07 02:27:25;;;;;;;36.08;16.33;;;;;;;;;;5006902;28;20054;-78
2022/05/07 02:29:51;;;;;;;30.90;17.20;;;;;;;;;;5008097;28;20154;-79
2022/05/07 02:32:18;;;;;;;32.22;17.10;;;;;;;;;;5022874;28;20050;-78
2022/05/07 02:34:44;;;;;;;31.98;17.10;;;;;;;;;;5008167;28;20125;-78
2022/05/07 02:37:10;;;;;;;25.80;16.25;;;;;;;;;;5018605;28;20624;-79
2022/05/07 02:39:37;;;;;;;30.38;15.93;;;;;;;;;;5023287;28;20054;-78
2022/05/07 02:44:50;;;;;;;32.38;16.42;;;;;;;;;;4989397;28;20063;-80
2022/05/07 02:47:16;;;;;;;33.35;17.13;;;;;;;;;;5002543;28;20086;-79
2022/05/07 02:49:42;;;;;;;27.83;16.67;;;;;;;;;;5002535;28;20093;-78
2022/05/07 02:52:09;;;;;;;30.33;17.00;;;;;;;;;;5007930;28;20145;-78
2022/05/07 02:54:35;;;;;;;29.17;17.50;;;;;;;;;;5007587;28;20082;-78
2022/05/07 02:57:01;;;;;;;27.23;17.48;;;;;;;;;;5007851;28;20138;-78
2022/05/07 02:59:29;;;;;;;26.50;16.73;;;;;;;;;;5007026;28;20050;-78
2022/05/07 03:01:56;;;;;;;29.60;17.17;;;;;;;;;;5009360;28;20142;-78
2022/05/07 03:04:22;;;;;;;29.80;17.42;;;;;;;;;;5010661;28;20050;-77
2022/05/07 03:06:49;;;;;;;31.77;18.30;;;;;;;;;;5012842;28;20045;-78
2022/05/07 03:09:15;;;;;;;30.63;16.63;;;;;;;;;;5009646;28;20844;-78
2022/05/07 03:11:43;;;;;;;28.45;16.80;;;;;;;;;;5013261;28;20617;-78
2022/05/07 03:14:09;;;;;;;26.08;16.30;;;;;;;;;;5009144;28;20194;-77
2022/05/07 03:16:38;;;;;;;27.50;16.55;;;;;;;;;;5009376;28;20153;-79
2022/05/07 03:19:05;;;;;;;29.10;16.65;;;;;;;;;;4988625;28;20057;-77
2022/05/07 03:21:31;;;;;;;25.40;16.45;;;;;;;;;;4989426;28;20074;-79
2022/05/07 03:23:57;;;;;;;30.90;16.95;;;;;;;;;;5006342;28;20062;-79
2022/05/07 03:26:24;;;;;;;26.35;15.43;;;;;;;;;;5004965;28;20054;-80
2022/05/07 03:28:50;;;;;;;27.88;16.17;;;;;;;;;;5006944;28;20212;-78
2022/05/07 03:31:19;;;;;;;25.45;15.60;;;;;;;;;;5028626;28;20076;-79
2022/05/07 03:33:46;;;;;;;29.52;16.13;;;;;;;;;;5012446;28;20531;-79
2022/05/07 03:36:13;;;;;;;26.52;15.63;;;;;;;;;;5009246;28;20110;-79
2022/05/07 03:38:40;;;;;;;25.52;15.43;;;;;;;;;;5012334;28;20070;-79
2022/05/07 03:41:06;;;;;;;27.95;15.55;;;;;;;;;;5027930;28;20034;-79
2022/05/07 03:43:33;;;;;;;25.70;15.05;;;;;;;;;;5013457;28;20094;-79
2022/05/07 03:46:00;;;;;;;25.77;15.25;;;;;;;;;;5012358;28;20089;-79
2022/05/07 03:48:29;;;;;;;25.98;15.02;;;;;;;;;;5012569;28;20058;-79
2022/05/07 03:50:55;;;;;;;24.75;14.90;;;;;;;;;;5014416;28;20077;-79
2022/05/07 03:53:30;;;;;;;27.17;15.15;;;;;;;;;;5011922;28;20063;-79
2022/05/07 03:56:01;;;;;;;31.05;14.60;;;;;;;;;;5003723;28;20081;-79
2022/05/07 03:58:27;;;;;;;;;;;;;;;;;;5015893;28;20068;-79
2022/05/07 04:00:54;;;;;;;24.23;14.88;;;;;;;;;;5025708;28;47067;-79
2022/05/07 04:03:21;;;;;;;24.30;14.65;;;;;;;;;;4993981;28;20135;-80
2022/05/07 04:05:48;;;;;;;23.17;14.40;;;;;;;;;;5012943;28;20065;-79
2022/05/07 04:08:14;;;;;;;26.92;15.15;;;;;;;;;;5014080;28;20058;-80
2022/05/07 04:10:42;;;;;;;23.70;14.55;;;;;;;;;;5012849;28;20142;-80
2022/05/07 04:13:10;;;;;;;22.85;13.93;;;;;;;;;;5012706;28;20046;-79
2022/05/07 04:15:37;;;;;;;23.05;13.68;;;;;;;;;;5012092;28;20043;-79
2022/05/07 04:18:04;;;;;;;22.88;14.20;;;;;;;;;;5010811;28;20054;-79
2022/05/07 04:20:31;;;;;;;24.33;14.45;;;;;;;;;;5012707;28;20054;-79
2022/05/07 04:22:57;;;;;;;24.42;14.18;;;;;;;;;;5010101;28;20051;-79
2022/05/07 04:25:23;;;;;;;21.73;12.50;;;;;;;;;;5013589;28;20118;-79
2022/05/07 04:27:50;;;;;;;21.55;12.90;;;;;;;;;;5012699;28;20073;-79
2022/05/07 04:30:17;;;;;;;23.88;14.60;;;;;;;;;;5011446;28;20058;-79
2022/05/07 04:32:43;;;;;;;21.00;12.80;;;;;;;;;;5011177;28;20082;-80
2022/05/07 04:35:09;;;;;;;22.65;13.32;;;;;;;;;;5010746;28;20109;-80
2022/05/07 04:37:35;;;;;;;20.15;12.57;;;;;;;;;;5010968;28;20980;-80
2022/05/07 04:40:02;;;;;;;23.88;12.32;;;;;;;;;;5011156;28;20090;-79
2022/05/07 04:42:28;;;;;;;21.85;12.45;;;;;;;;;;5023325;28;20069;-80
2022/05/07 04:44:55;;;;;;;22.95;13.15;;;;;;;;;;5006621;28;20056;-80
2022/05/07 04:47:21;;;;;;;27.42;12.82;;;;;;;;;;5010224;28;20038;-80
2022/05/07 04:49:48;;;;;;;20.02;12.13;;;;;;;;;;5004961;28;20048;-78
2022/05/07 04:52:14;;;;;;;19.25;11.38;;;;;;;;;;5004094;28;20058;-78
2022/05/07 04:54:41;;;;;;;19.90;11.50;;;;;;;;;;5002957;28;20166;-78
2022/05/07 04:57:11;;;;;;;20.63;11.52;;;;;;;;;;4991803;28;20086;-78
2022/05/07 04:59:37;;;;;;;21.45;11.73;;;;;;;;;;4990407;28;20058;-78
2022/05/07 05:02:03;;;;;;;22.30;11.38;;;;;;;;;;5002760;28;20535;-78
2022/05/07 05:04:30;;;;;;;20.05;11.73;;;;;;;;;;5003644;28;20054;-79
2022/05/07 05:06:56;;;;;;;23.38;11.02;;;;;;;;;;5005693;28;20046;-80
2022/05/07 05:09:23;;;;;;;21.25;11.43;;;;;;;;;;5011405;28;20142;-80
2022/05/07 05:11:49;;;;;;;20.33;10.75;;;;;;;;;;5014852;28;20506;-81
2022/05/07 05:17:01;;;;;;;20.80;10.55;;;;;;;;;;5011818;28;20054;-79
2022/05/07 05:19:27;;;;;;;20.42;11.00;;;;;;;;;;5011861;28;20610;-78
2022/05/07 05:21:53;;;;;;;20.55;10.95;;;;;;;;;;5012724;28;20051;-79
2022/05/07 05:24:20;;;;;;;18.45;10.63;;;;;;;;;;5010567;28;20085;-80
2022/05/07 05:26:46;;;;;;;23.27;10.65;;;;;;;;;;5009812;28;20050;-80
2022/05/07 05:29:12;;;;;;;18.60;9.32;;;;;;;;;;5011538;28;20103;-80
2022/05/07 05:31:39;;;;;;;19.83;10.43;;;;;;;;;;5010676;28;20046;-79
2022/05/07 05:34:05;;;;;;;22.15;10.90;;;;;;;;;;5010717;28;20440;-79
2022/05/07 05:36:32;;;;;;;20.67;10.52;;;;;;;;;;5013629;28;20061;-79
2022/05/07 05:38:58;;;;;;;22.55;10.00;;;;;;;;;;4984843;28;20055;-77
2022/05/07 05:41:25;;;;;;;22.83;10.75;;;;;;;;;;5001711;28;20145;-78
2022/05/07 05:43:51;;;;;;;22.98;10.63;;;;;;;;;;5004187;28;20065;-78
2022/05/07 05:46:17;;;;;;;20.10;9.88;;;;;;;;;;5003106;28;20238;-78
2022/05/07 05:48:44;;;;;;;19.63;10.30;;;;;;;;;;5004745;28;20498;-78
2022/05/07 05:51:11;;;;;;;25.95;10.75;;;;;;;;;;5003341;28;20495;-78
2022/05/07 05:53:37;;;;;;;23.25;10.23;;;;;;;;;;5001788;28;20058;-78
2022/05/07 05:56:03;;;;;;;20.75;10.90;;;;;;;;;;5002280;28;20062;-78
2022/05/07 05:58:33;;;;;;;20.25;10.25;;;;;;;;;;5001936;28;20584;-78
2022/05/07 06:01:00;;;;;;;20.50;10.30;;;;;;;;;;5005223;28;20062;-78
2022/05/07 06:03:26;;;;;;;23.75;9.90;;;;;;;;;;5005412;28;20051;-78
2022/05/07 06:05:52;;;;;;;24.25;10.00;;;;;;;;;;5005028;28;20054;-78
2022/05/07 06:08:19;;;;;;;23.70;10.35;;;;;;;;;;5005366;28;20064;-78
2022/05/07 06:10:45;;;;;;;21.90;9.90;;;;;;;;;;5007555;28;20077;-79
2022/05/07 06:13:11;;;;;;;23.90;10.15;;;;;;;;;;5005170;28;20057;-79
2022/05/07 06:15:38;;;;;;;22.98;10.65;;;;;;;;;;5004287;28;20055;-78
2022/05/07 06:18:05;;;;;;;25.92;10.68;;;;;;;;;;5005703;28;20061;-78
2022/05/07 06:20:31;;;;;;;24.38;10.95;;;;;;;;;;5005266;28;20089;-78
2022/05/07 06:23:01;;;;;;;25.35;11.57;;;;;;;;;;5004387;28;20050;-78
2022/05/07 06:28:13;;;;;;;26.73;11.23;;;;;;;;;;5010373;28;20058;-79
2022/05/07 06:30:39;;;;;;;23.75;10.82;;;;;;;;;;5013674;28;20114;-79
2022/05/07 06:33:06;;;;;;;26.88;11.57;;;;;;;;;;5011479;28;20203;-78
2022/05/07 06:35:32;;;;;;;23.30;10.45;;;;;;;;;;5011711;28;20141;-79
2022/05/07 06:37:58;;;;;;;22.35;11.15;;;;;;;;;;5014074;28;20137;-79
2022/05/07 06:40:25;;;;;;;26.70;11.07;;;;;;;;;;5011608;28;20051;-79
2022/05/07 06:42:51;;;;;;;24.08;10.88;;;;;;;;;;5012875;28;20062;-79
2022/05/07 06:45:18;;;;;;;26.42;11.93;;;;;;;;;;5012705;28;20045;-79
2022/05/07 06:47:44;;;;;;;24.42;11.30;;;;;;;;;;5015330;28;20046;-79
2022/05/07 06:50:10;;;;;;;25.20;12.43;;;;;;;;;;5015447;28;20080;-79
2022/05/07 06:52:46;;;;;;;29.10;10.95;;;;;;;;;;5012163;28;20586;-80
2022/05/07 06:55:13;;;;;;;22.60;11.60;;;;;;;;;;5013418;28;20065;-78
2022/05/07 06:57:39;;;;;;;25.15;11.18;;;;;;;;;;5002882;28;20082;-79
2022/05/07 07:00:06;;;;;;;23.58;11.25;;;;;;;;;;5011834;28;20107;-78
2022/05/07 07:02:32;;;;;;;25.58;12.13;;;;;;;;;;5009658;28;20876;-79
2022/05/07 07:05:00;;;;;;;24.15;11.52;;;;;;;;;;5017420;28;20113;-79
2022/05/07 07:07:26;;;;;;;25.13;11.05;;;;;;;;;;5018430;28;20150;-78
2022/05/07 07:09:52;;;;;;;20.65;11.10;;;;;;;;;;5006473;28;20055;-79
2022/05/07 07:12:20;;;;;;;21.80;11.43;;;;;;;;;;5015264;28;20034;-80
2022/05/07 07:14:58;;;;;;;26.88;12.57;;;;;;;;;;5026914;28;20666;-79
2022/05/07 07:17:27;;;;;;;23.45;11.10;;;;;;;;;;5008748;28;20111;-79
2022/05/07 07:19:54;;;;;;;25.02;12.00;;;;;;;;;;5006146;28;20105;-80
2022/05/07 07:22:20;;;;;;;23.38;11.80;;;;;;;;;;5010765;28;20504;-79
2022/05/07 07:24:47;;;;;;;21.35;11.18;;;;;;;;;;5006458;28;20094;-78
2022/05/07 07:27:13;;;;;;;22.55;11.77;;;;;;;;;;5011855;28;20133;-78
2022/05/07 07:29:41;;;;;;;23.13;11.75;;;;;;;;;;5006966;28;20054;-79
2022/05/07 07:32:07;;;;;;;22.17;11.82;;;;;;;;;;5014280;28;20141;-77
2022/05/07 07:34:34;;;;;;;22.40;10.70;;;;;;;;;;5010496;28;20158;-78
2022/05/07 07:37:00;;;;;;;24.33;10.93;;;;;;;;;;5005770;28;20189;-80
2022/05/07 07:39:26;;;;;;;22.42;11.20;;;;;;;;;;5014917;28;20105;-80
2022/05/07 07:41:53;;;;;;;20.75;11.30;;;;;;;;;;5018413;28;20078;-78
2022/05/07 07:44:19;;;;;;;25.00;10.80;;;;;;;;;;5015600;28;20066;-78
2022/05/07 07:49:31;;;;;;;26.80;11.32;;;;;;;;;;5005686;28;20811;-79
2022/05/07 07:51:57;;;;;;;22.33;10.75;;;;;;;;;;5006475;28;20121;-78
2022/05/07 07:54:23;;;;;;;20.55;10.07;;;;;;;;;;5011506;28;20153;-79
2022/05/07 07:56:50;;;;;;;19.73;10.20;;;;;;;;;;5011748;28;20086;-79
2022/05/07 07:59:16;;;;;;;18.15;10.73;;;;;;;;;;5010184;28;20142;-78
2022/05/07 08:01:43;;;;;;;19.65;10.10;;;;;;;;;;5013078;28;20077;-78
2022/05/07 08:04:10;;;;;;;16.42;8.48;;;;;;;;;;5011990;28;20054;-78
2022/05/07 08:06:36;;;;;;;18.00;9.25;;;;;;;;;;5012522;28;20130;-78
2022/05/07 08:11:49;;;;;;;20.02;10.93;;;;;;;;;;5003441;28;20043;-78
2022/05/07 08:14:15;;;;;;;16.98;9.23;;;;;;;;;;5013031;28;20133;-76
2022/05/07 08:16:42;;;;;;;16.23;8.93;;;;;;;;;;5008198;28;20133;-77
2022/05/07 08:19:09;;;;;;;19.52;9.05;;;;;;;;;;5005167;28;20055;-77
2022/05/07 08:21:35;;;;;;;17.50;8.95;;;;;;;;;;5005985;28;20097;-77
2022/05/07 08:24:02;;;;;;;18.67;9.13;;;;;;;;;;5005170;28;20567;-77
2022/05/07 08:26:28;;;;;;;16.30;8.85;;;;;;;;;;5004712;28;20061;-77
2022/05/07 08:28:54;;;;;;;15.48;8.60;;;;;;;;;;5004942;28;20055;-77
2022/05/07 08:31:24;;;;;;;16.60;9.82;;;;;;;;;;5002368;28;20521;-77
2022/05/07 08:33:51;;;;;;;17.10;9.60;;;;;;;;;;5017277;28;20055;-77
2022/05/07 08:36:17;;;;;;;19.98;9.70;;;;;;;;;;4989911;28;20061;-77
2022/05/07 08:38:44;;;;;;;17.55;9.75;;;;;;;;;;5005757;28;20842;-77
2022/05/07 08:41:10;;;;;;;17.02;8.93;;;;;;;;;;5004222;28;20058;-77
2022/05/07 08:43:42;;;;;;;19.65;9.07;;;;;;;;;;5003630;28;20496;-77
2022/05/07 08:46:10;;;;;;;16.73;8.60;;;;;;;;;;5009146;28;20050;-77
2022/05/07 08:48:38;;;;;;;17.95;9.85;;;;;;;;;;5016342;28;20059;-76
2022/05/07 08:51:05;;;;;;;18.38;9.98;;;;;;;;;;5003307;28;20141;-77
2022/05/07 08:53:33;;;;;;;22.77;10.32;;;;;;;;;;5003576;28;20584;-77
2022/05/07 08:56:00;;;;;;;18.50;9.60;;;;;;;;;;5001684;28;20149;-77
2022/05/07 08:58:26;;;;;;;16.00;9.07;;;;;;;;;;5002640;28;20055;-82
2022/05/07 09:00:52;;;;;;;15.65;9.30;;;;;;;;;;5018839;28;20890;-78
2022/05/07 09:03:19;;;;;;;17.95;9.63;;;;;;;;;;5004340;28;20058;-78
2022/05/07 09:05:45;;;;;;;16.02;9.25;;;;;;;;;;5007129;28;20054;-78
2022/05/07 09:08:12;;;;;;;19.17;10.25;;;;;;;;;;5004344;28;20059;-78
2022/05/07 09:10:39;;;;;;;24.40;9.73;;;;;;;;;;5001925;28;20446;-78
2022/05/07 09:13:15;;;;;;;18.35;9.40;;;;;;;;;;5001076;28;20054;-78
2022/05/07 09:15:48;;;;;;;17.27;9.23;;;;;;;;;;4998920;28;20060;-78
2022/05/07 09:18:15;;;;;;;18.67;9.88;;;;;;;;;;4997904;28;20060;-78
2022/05/07 09:20:42;;;;;;;15.10;8.02;;;;;;;;;;5000168;28;20088;-78
2022/05/07 09:23:11;;;;;;;15.00;7.43;;;;;;;;;;5000886;28;20145;-78
2022/05/07 09:25:49;;;;;;;14.65;7.80;;;;;;;;;;5005689;28;20050;-78
2022/05/07 09:28:25;;;;;;;12.90;8.02;;;;;;;;;;4997010;28;20263;-78
2022/05/07 09:30:54;;;;;;;13.18;7.75;;;;;;;;;;5010121;28;20054;-79
2022/05/07 09:33:33;;;;;;;14.70;8.35;;;;;;;;;;5010531;28;20924;-79
2022/05/07 09:36:10;;;;;;;13.20;6.97;;;;;;;;;;5007380;28;20116;-78
2022/05/07 09:38:37;;;;;;;17.45;9.73;;;;;;;;;;5003356;28;20169;-77
2022/05/07 09:41:04;;;;;;;13.45;8.65;;;;;;;;;;5002435;28;20058;-77
2022/05/07 09:43:31;;;;;;;17.42;9.43;;;;;;;;;;5004782;28;20058;-76
2022/05/07 09:45:58;;;;;;;13.07;8.43;;;;;;;;;;4996778;28;20145;-77
2022/05/07 09:48:24;;;;;;;15.02;8.73;;;;;;;;;;4990025;28;20402;-76
2022/05/07 09:50:51;;;;;;;15.38;9.48;;;;;;;;;;5000944;28;20311;-76
2022/05/07 09:58:49;;;;;;;15.93;9.77;;;;;;;;;;5001655;28;20146;-77
2022/05/07 10:01:21;;;;;;;15.68;8.90;;;;;;;;;;5003318;28;20058;-77
2022/05/07 10:04:07;;;;;;;14.70;8.63;;;;;;;;;;5012524;28;20849;-77
2022/05/07 10:06:43;;;;;;;16.38;9.07;;;;;;;;;;5019432;28;20539;-78
2022/05/07 10:09:10;;;;;;;15.27;9.23;;;;;;;;;;5001363;28;20114;-78
2022/05/07 10:11:36;;;;;;;17.92;8.95;;;;;;;;;;5004406;28;20148;-78
2022/05/07 10:14:03;;;;;;;13.32;8.23;;;;;;;;;;5006525;28;20160;-78
2022/05/07 10:16:30;;;;;;;14.73;7.75;;;;;;;;;;5009878;28;20504;-78
2022/05/07 10:19:07;;;;;;;15.60;8.52;;;;;;;;;;5008839;28;20085;-76
2022/05/07 10:21:34;;;;;;;16.00;7.57;;;;;;;;;;5007904;28;20590;-77
2022/05/07 10:24:00;;;;;;;13.70;8.02;;;;;;;;;;5008326;28;20189;-78
2022/05/07 10:26:37;;;;;;;12.35;7.28;;;;;;;;;;5005957;28;20057;-79
2022/05/07 10:29:04;;;;;;;13.85;7.13;;;;;;;;;;5003720;28;20080;-78
2022/05/07 10:31:31;;;;;;;14.70;6.35;;;;;;;;;;5005717;28;20062;-78
2022/05/07 10:33:59;;;;;;;10.40;5.38;;;;;;;;;;5006938;28;20237;-78
2022/05/07 10:36:32;;;;;;;10.88;5.60;;;;;;;;;;5005951;28;20090;-78
2022/05/07 10:39:05;;;;;;;11.82;6.15;;;;;;;;;;5004861;28;20046;-78
2022/05/07 10:41:32;;;;;;;12.70;6.10;;;;;;;;;;5004454;28;20581;-77
2022/05/07 10:44:00;;;;;;;13.25;6.07;;;;;;;;;;5006135;28;20137;-77
2022/05/07 10:46:36;;;;;;;10.60;6.20;;;;;;;;;;5014303;28;20065;-77
2022/05/07 10:49:04;;;;;;;11.05;6.22;;;;;;;;;;4998902;28;20141;-77
2022/05/07 10:51:31;;;;;;;13.13;6.18;;;;;;;;;;5005570;28;20058;-77
2022/05/07 10:54:00;;;;;;;15.45;7.20;;;;;;;;;;5006034;28;20065;-77
2022/05/07 10:56:28;;;;;;;10.60;6.35;;;;;;;;;;5005974;28;20465;-77
2022/05/07 10:58:57;;;;;;;12.18;6.63;;;;;;;;;;5006239;28;20056;-77
2022/05/07 11:01:24;;;;;;;12.32;6.53;;;;;;;;;;5004865;28;20050;-77
2022/05/07 11:04:00;;;;;;;14.65;7.07;;;;;;;;;;5005156;28;20050;-77
2022/05/07 11:06:26;;;;;;;13.80;7.22;;;;;;;;;;5004995;28;20078;-77
2022/05/07 11:08:53;;;;;;;13.32;7.28;;;;;;;;;;5005280;28;20065;-77
2022/05/07 11:11:19;;;;;;;14.20;6.40;;;;;;;;;;5003977;28;20054;-77
2022/05/07 11:13:45;;;;;;;14.07;8.00;;;;;;;;;;4996692;28;20970;-77
2022/05/07 11:16:12;;;;;;;11.65;7.18;;;;;;;;;;5002533;28;20141;-77
2022/05/07 11:18:41;;;;;;;12.32;7.10;;;;;;;;;;5005956;28;20054;-77
2022/05/07 11:21:08;;;;;;;17.43;8.70;;;;;;;;;;5005836;28;20050;-77
2022/05/07 11:23:36;;;;;;;16.45;8.80;;;;;;;;;;5005648;28;20054;-77
2022/05/07 11:26:12;;;;;;;15.60;8.55;;;;;;;;;;5005108;28;20136;-77
2022/05/07 11:28:39;;;;;;;13.70;8.32;;;;;;;;;;5005412;28;20051;-77
2022/05/07 11:31:06;;;;;;;17.70;8.93;;;;;;;;;;5005692;28;20133;-77
2022/05/07 11:33:33;;;;;;;11.43;7.15;;;;;;;;;;5004839;28;20055;-78
2022/05/07 11:36:00;;;;;;;13.38;8.00;;;;;;;;;;5023353;28;20085;-78
2022/05/07 11:38:26;;;;;;;14.00;7.90;;;;;;;;;;5013946;28;20109;-77
2022/05/07 11:40:53;;;;;;;17.35;8.27;;;;;;;;;;5006093;28;20608;-77
2022/05/07 11:46:06;;;;;;;12.25;8.13;;;;;;;;;;5005450;28;20170;-77
2022/05/07 11:48:33;;;;;;;15.88;9.18;;;;;;;;;;5004753;28;20062;-77
2022/05/07 11:50:59;;;;;;;17.70;9.35;;;;;;;;;;5005989;28;20065;-78
2022/05/07 11:53:30;;;;;;;17.30;9.48;;;;;;;;;;5003269;28;20544;-77
2022/05/07 11:56:06;;;;;;;16.50;8.73;;;;;;;;;;5006049;28;20085;-77
2022/05/07 11:58:47;;;;;;;16.65;9.45;;;;;;;;;;5004329;28;20178;-76
2022/05/07 12:01:17;;;;;;;15.48;9.07;;;;;;;;;;5002993;28;20143;-76
2022/05/07 12:03:44;;;;;;;18.83;10.25;;;;;;;;;;5016385;28;20060;-77
2022/05/07 12:06:12;;;;;;;22.30;10.63;;;;;;;;;;5018288;28;20816;-76
2022/05/07 12:08:38;;;;;;;21.70;10.98;;;;;;;;;;5002526;28;20142;-78
2022/05/07 12:11:05;;;;;;;17.02;10.43;;;;;;;;;;5002562;28;20060;-77
2022/05/07 12:13:31;;;;;;;17.63;11.68;;;;;;;;;;5003828;28;21432;-76
2022/05/07 12:18:51;;;;;;;20.30;12.07;;;;;;;;;;4986231;28;20083;-77
2022/05/07 12:21:17;;;;;;;20.67;11.88;;;;;;;;;;4991808;28;20057;-78
2022/05/07 12:31:46;;;;;;;16.90;8.77;;;;;;;;;;5005540;28;20063;-77
2022/05/07 12:34:12;;;;;;;16.27;8.65;;;;;;;;;;4999930;28;20121;-77
2022/05/07 12:36:39;;;;;;;15.15;8.70;;;;;;;;;;5001436;28;20054;-77
2022/05/07 12:39:05;;;;;;;15.30;9.48;;;;;;;;;;5002097;28;20057;-76
2022/05/07 12:41:31;;;;;;;14.25;8.77;;;;;;;;;;5002305;28;20586;-77
2022/05/07 12:44:01;;;;;;;13.40;7.43;;;;;;;;;;5002462;28;20179;-77
2022/05/07 12:46:27;;;;;;;15.82;7.75;;;;;;;;;;4999809;28;20101;-77
2022/05/07 12:48:55;;;;;;;11.88;8.00;;;;;;;;;;5003903;28;20058;-77
2022/05/07 12:51:22;;;;;;;15.35;8.27;;;;;;;;;;5017157;28;20076;-77
2022/05/07 12:53:51;;;;;;;11.40;6.93;;;;;;;;;;5003015;28;20065;-77
2022/05/07 12:56:18;;;;;;;12.63;6.40;;;;;;;;;;5014968;28;20058;-77
2022/05/07 12:58:44;;;;;;;12.25;6.47;;;;;;;;;;4999980;28;20065;-77
2022/05/07 13:01:12;;;;;;;9.40;5.90;;;;;;;;;;5002063;28;20054;-76
2022/05/07 13:03:39;;;;;;;10.38;5.72;;;;;;;;;;5004433;28;20097;-76
2022/05/07 13:06:05;;;;;;;10.05;5.55;;;;;;;;;;5003879;28;20051;-76
2022/05/07 13:08:32;;;;;;;9.48;5.60;;;;;;;;;;4999648;28;20060;-76
2022/05/07 13:10:58;;;;;;;10.45;5.63;;;;;;;;;;5002803;28;20064;-77
2022/05/07 13:13:25;;;;;;;14.68;6.30;;;;;;;;;;5018991;28;20133;-76
2022/05/07 13:15:51;;;;;;;12.52;7.22;;;;;;;;;;5003577;28;20058;-76
2022/05/07 13:18:18;;;;;;;14.77;7.93;;;;;;;;;;5002463;28;20061;-77
2022/05/07 13:20:51;;;;;;;12.13;7.75;;;;;;;;;;5000254;28;20230;-76
2022/05/07 13:23:17;;;;;;;12.32;7.63;;;;;;;;;;5002399;28;20565;-76
2022/05/07 13:25:44;;;;;;;9.50;6.20;;;;;;;;;;5004493;28;20830;-76
2022/05/07 13:28:10;;;;;;;11.57;6.60;;;;;;;;;;4998708;28;20122;-77
2022/05/07 13:30:36;;;;;;;13.23;6.18;;;;;;;;;;5003080;28;20058;-79
2022/05/07 13:33:02;;;;;;;12.88;7.30;;;;;;;;;;4999795;28;20061;-77
2022/05/07 13:35:29;;;;;;;13.88;7.25;;;;;;;;;;5002767;28;20110;-78
2022/05/07 13:37:55;;;;;;;12.15;7.65;;;;;;;;;;4995214;28;20050;-77
2022/05/07 13:40:22;;;;;;;15.70;7.28;;;;;;;;;;4995401;28;20513;-77
2022/05/07 13:42:48;;;;;;;11.43;7.35;;;;;;;;;;4985771;28;20050;-77
2022/05/07 13:45:15;;;;;;;13.30;7.75;;;;;;;;;;4995360;28;20077;-76
2022/05/07 13:47:42;;;;;;;15.27;8.60;;;;;;;;;;4995147;28;20414;-78
2022/05/07 13:50:09;;;;;;;14.02;8.23;;;;;;;;;;4991762;28;20141;-77
2022/05/07 13:52:35;;;;;;;13.90;8.20;;;;;;;;;;5000529;28;20062;-77
2022/05/07 13:55:02;;;;;;;13.93;7.57;;;;;;;;;;5001905;28;20057;-78
2022/05/07 13:57:29;;;;;;;14.82;7.95;;;;;;;;;;4998465;28;20054;-76
2022/05/07 13:59:55;;;;;;;15.52;7.38;;;;;;;;;;4988230;28;20053;-78
2022/05/07 14:02:27;;;;;;;11.23;6.90;;;;;;;;;;4985242;28;20101;-77
2022/05/07 14:04:54;;;;;;;11.15;7.07;;;;;;;;;;4997358;28;20334;-77
2022/05/07 14:07:20;;;;;;;13.05;7.50;;;;;;;;;;4994406;28;20138;-78
2022/05/07 14:09:50;;;;;;;14.50;7.57;;;;;;;;;;4995384;28;20058;-78
2022/05/07 14:12:17;;;;;;;16.97;6.87;;;;;;;;;;4993598;28;20126;-78
2022/05/07 14:14:44;;;;;;;15.90;7.80;;;;;;;;;;4981646;28;20916;-78
2022/05/07 14:17:11;;;;;;;14.55;7.93;;;;;;;;;;5001936;28;20142;-77
2022/05/07 14:19:38;;;;;;;14.88;8.27;;;;;;;;;;4999052;28;20228;-78
2022/05/07 14:22:04;;;;;;;13.57;7.93;;;;;;;;;;4999976;28;20086;-77
2022/05/07 14:24:31;;;;;;;13.00;7.88;;;;;;;;;;4997193;28;20359;-78
2022/05/07 14:26:58;;;;;;;14.05;8.57;;;;;;;;;;4996183;28;20133;-77
2022/05/07 14:29:25;;;;;;;14.40;7.82;;;;;;;;;;4997157;28;20145;-77
2022/05/07 14:31:51;;;;;;;12.40;8.00;;;;;;;;;;4998371;28;20160;-78
2022/05/07 14:34:18;;;;;;;12.57;7.40;;;;;;;;;;4999195;28;20525;-78
2022/05/07 14:36:45;;;;;;;16.08;8.68;;;;;;;;;;5007195;28;20576;-77
2022/05/07 14:39:11;;;;;;;15.18;9.02;;;;;;;;;;5002389;28;20544;-77
2022/05/07 14:41:38;;;;;;;16.52;10.10;;;;;;;;;;5015720;28;20667;-78
2022/05/07 14:44:06;;;;;;;14.82;9.13;;;;;;;;;;5000045;28;20061;-76
2022/05/07 14:46:33;;;;;;;17.33;8.82;;;;;;;;;;4999084;28;20403;-79
2022/05/07 14:48:59;;;;;;;15.32;9.25;;;;;;;;;;5003146;28;20580;-77
2022/05/07 14:51:27;;;;;;;13.07;7.32;;;;;;;;;;5000522;28;20055;-78
2022/05/07 14:53:53;;;;;;;12.82;7.32;;;;;;;;;;4999726;28;20082;-77
2022/05/07 14:56:20;;;;;;;11.05;6.30;;;;;;;;;;5000372;28;20058;-79
2022/05/07 14:58:47;;;;;;;12.20;6.60;;;;;;;;;;4997580;28;20345;-78
2022/05/07 15:01:14;;;;;;;10.48;6.25;;;;;;;;;;5004556;28;20058;-77